sensor_id;sensor_type;location;lat;lon;timestamp;P1;durP1;ratioP1;P2;durP2;ratioP2
19645;SDS011;9971;52.446;13.452;2023-07-20T00:04:16;0.10;;;0.10;;
19645;SDS011;9971;52.446;13.452;2023-07-20T00:09:20;0.20;;;0.10;;
19645;SDS011;9971;52.446;13.452;2023-07-20T00:14:23;0.00;;;0.00;;
19645;SDS011;9971;52.446;13.452;2023-07-20T00:19:26;0.10;;;0.10;;
19645;SDS011;9971;52.446;13.452;2023-07-20T00:24:28;0.00;;;0.00;;
19645;SDS011;9971;52.446;13.452;2023-07-20T00:29:31;0.00;;;0.00;;
19645;SDS011;9971;52.446;13.452;2023-07-20T00:34:35;0.00;;;0.00;;
19645;SDS011;9971;52.446;13.452;2023-07-20T00:39:39;0.10;;;0.10;;
19645;SDS011;9971;52.446;13.452;2023-07-20T00:44:42;0.00;;;0.00;;
19645;SDS011;9971;52.446;13.452;2023-07-20T00:49:46;0.10;;;0.03;;
19645;SDS011;9971;52.446;13.452;2023-07-20T00:54:50;0.10;;;0.00;;
19645;SDS011;9971;52.446;13.452;2023-07-20T00:59:52;0.00;;;0.00;;
19645;SDS011;9971;52.446;13.452;2023-07-20T01:04:54;0.10;;;0.10;;
19645;SDS011;9971;52.446;13.452;2023-07-20T01:10:03;0.00;;;0.00;;
19645;SDS011;9971;52.446;13.452;2023-07-20T01:15:04;0.03;;;0.03;;
19645;SDS011;9971;52.446;13.452;2023-07-20T01:20:08;0.70;;;0.60;;
19645;SDS011;9971;52.446;13.452;2023-07-20T01:30:42;0.00;;;0.00;;
19645;SDS011;9971;52.446;13.452;2023-07-20T01:35:37;0.08;;;0.08;;
19645;SDS011;9971;52.446;13.452;2023-07-20T01:40:40;0.10;;;0.10;;
19645;SDS011;9971;52.446;13.452;2023-07-20T01:45:42;0.15;;;0.15;;
19645;SDS011;9971;52.446;13.452;2023-07-20T01:50:45;0.23;;;0.20;;
19645;SDS011;9971;52.446;13.452;2023-07-20T01:55:48;0.03;;;0.00;;
19645;SDS011;9971;52.446;13.452;2023-07-20T02:00:51;0.65;;;0.37;;
19645;SDS011;9971;52.446;13.452;2023-07-20T02:05:54;0.05;;;0.05;;
19645;SDS011;9971;52.446;13.452;2023-07-20T02:10:56;0.08;;;0.08;;
19645;SDS011;9971;52.446;13.452;2023-07-20T02:15:59;0.10;;;0.10;;
19645;SDS011;9971;52.446;13.452;2023-07-20T02:21:02;1.35;;;1.20;;
19645;SDS011;9971;52.446;13.452;2023-07-20T02:26:05;0.35;;;0.10;;
19645;SDS011;9971;52.446;13.452;2023-07-20T02:31:08;0.40;;;0.15;;
19645;SDS011;9971;52.446;13.452;2023-07-20T02:36:10;0.00;;;0.00;;
19645;SDS011;9971;52.446;13.452;2023-07-20T02:41:13;0.00;;;0.00;;
19645;SDS011;9971;52.446;13.452;2023-07-20T02:46:15;0.03;;;0.03;;
19645;SDS011;9971;52.446;13.452;2023-07-20T02:51:17;0.10;;;0.10;;
19645;SDS011;9971;52.446;13.452;2023-07-20T02:56:20;0.33;;;0.23;;
19645;SDS011;9971;52.446;13.452;2023-07-20T03:01:22;0.42;;;0.03;;
19645;SDS011;9971;52.446;13.452;2023-07-20T03:06:28;0.00;;;0.00;;
19645;SDS011;9971;52.446;13.452;2023-07-20T03:11:32;0.13;;;0.13;;
19645;SDS011;9971;52.446;13.452;2023-07-20T03:16:33;1.02;;;1.02;;
19645;SDS011;9971;52.446;13.452;2023-07-20T03:21:35;0.30;;;0.15;;
19645;SDS011;9971;52.446;13.452;2023-07-20T03:26:38;0.65;;;0.45;;
19645;SDS011;9971;52.446;13.452;2023-07-20T03:31:40;2.33;;;2.12;;
19645;SDS011;9971;52.446;13.452;2023-07-20T03:36:43;1.37;;;0.80;;
19645;SDS011;9971;52.446;13.452;2023-07-20T03:41:45;0.30;;;0.30;;
19645;SDS011;9971;52.446;13.452;2023-07-20T03:46:49;0.20;;;0.20;;
19645;SDS011;9971;52.446;13.452;2023-07-20T03:51:53;0.10;;;0.10;;
19645;SDS011;9971;52.446;13.452;2023-07-20T03:56:56;0.13;;;0.13;;
19645;SDS011;9971;52.446;13.452;2023-07-20T04:01:59;1.20;;;1.10;;
19645;SDS011;9971;52.446;13.452;2023-07-20T04:07:02;0.20;;;0.20;;
19645;SDS011;9971;52.446;13.452;2023-07-20T04:12:04;1.47;;;1.00;;
19645;SDS011;9971;52.446;13.452;2023-07-20T04:17:07;0.30;;;0.30;;
19645;SDS011;9971;52.446;13.452;2023-07-20T04:22:11;0.83;;;0.60;;
19645;SDS011;9971;52.446;13.452;2023-07-20T04:27:13;0.90;;;0.75;;
19645;SDS011;9971;52.446;13.452;2023-07-20T04:32:16;0.37;;;0.37;;
19645;SDS011;9971;52.446;13.452;2023-07-20T04:37:19;0.30;;;0.30;;
19645;SDS011;9971;52.446;13.452;2023-07-20T04:42:22;0.25;;;0.25;;
19645;SDS011;9971;52.446;13.452;2023-07-20T04:47:25;0.00;;;0.00;;
19645;SDS011;9971;52.446;13.452;2023-07-20T04:52:27;0.10;;;0.10;;
19645;SDS011;9971;52.446;13.452;2023-07-20T04:57:29;0.00;;;0.00;;
19645;SDS011;9971;52.446;13.452;2023-07-20T05:02:32;0.10;;;0.10;;
19645;SDS011;9971;52.446;13.452;2023-07-20T05:07:34;0.10;;;0.10;;
19645;SDS011;9971;52.446;13.452;2023-07-20T05:12:37;0.23;;;0.20;;
19645;SDS011;9971;52.446;13.452;2023-07-20T05:17:39;0.13;;;0.13;;
19645;SDS011;9971;52.446;13.452;2023-07-20T05:22:43;0.20;;;0.20;;
19645;SDS011;9971;52.446;13.452;2023-07-20T05:27:45;0.20;;;0.20;;
19645;SDS011;9971;52.446;13.452;2023-07-20T05:32:48;0.20;;;0.20;;
19645;SDS011;9971;52.446;13.452;2023-07-20T05:37:50;0.20;;;0.20;;
19645;SDS011;9971;52.446;13.452;2023-07-20T05:42:52;0.97;;;0.93;;
19645;SDS011;9971;52.446;13.452;2023-07-20T05:47:54;0.20;;;0.20;;
19645;SDS011;9971;52.446;13.452;2023-07-20T06:25:16;0.10;;;0.10;;
19645;SDS011;9971;52.446;13.452;2023-07-20T06:30:19;0.77;;;0.77;;
19645;SDS011;9971;52.446;13.452;2023-07-20T06:35:22;3.20;;;1.70;;
19645;SDS011;9971;52.446;13.452;2023-07-20T06:40:28;3.52;;;2.05;;
19645;SDS011;9971;52.446;13.452;2023-07-20T06:45:44;1.10;;;0.93;;
19645;SDS011;9971;52.446;13.452;2023-07-20T06:50:57;0.90;;;0.90;;
19645;SDS011;9971;52.446;13.452;2023-07-20T06:56:11;2.00;;;1.27;;
19645;SDS011;9971;52.446;13.452;2023-07-20T07:01:35;1.17;;;1.07;;
19645;SDS011;9971;52.446;13.452;2023-07-20T07:06:41;1.00;;;1.00;;
19645;SDS011;9971;52.446;13.452;2023-07-20T07:11:43;1.40;;;1.30;;
19645;SDS011;9971;52.446;13.452;2023-07-20T07:16:45;0.55;;;0.55;;
19645;SDS011;9971;52.446;13.452;2023-07-20T07:21:48;1.40;;;0.80;;
19645;SDS011;9971;52.446;13.452;2023-07-20T07:26:50;1.75;;;1.22;;
19645;SDS011;9971;52.446;13.452;2023-07-20T07:31:53;1.10;;;1.00;;
19645;SDS011;9971;52.446;13.452;2023-07-20T07:36:55;1.37;;;1.10;;
19645;SDS011;9971;52.446;13.452;2023-07-20T07:41:57;1.05;;;0.88;;
19645;SDS011;9971;52.446;13.452;2023-07-20T07:47:00;0.75;;;0.75;;
19645;SDS011;9971;52.446;13.452;2023-07-20T07:52:04;1.05;;;0.78;;
19645;SDS011;9971;52.446;13.452;2023-07-20T07:57:07;0.67;;;0.67;;
19645;SDS011;9971;52.446;13.452;2023-07-20T08:02:09;0.98;;;0.88;;
19645;SDS011;9971;52.446;13.452;2023-07-20T08:07:13;0.50;;;0.50;;
19645;SDS011;9971;52.446;13.452;2023-07-20T08:12:16;0.80;;;0.50;;
19645;SDS011;9971;52.446;13.452;2023-07-20T08:17:18;1.25;;;0.62;;
19645;SDS011;9971;52.446;13.452;2023-07-20T08:22:22;0.60;;;0.60;;
19645;SDS011;9971;52.446;13.452;2023-07-20T08:27:25;0.57;;;0.57;;
19645;SDS011;9971;52.446;13.452;2023-07-20T08:32:28;0.73;;;0.70;;
19645;SDS011;9971;52.446;13.452;2023-07-20T08:37:30;0.50;;;0.43;;
19645;SDS011;9971;52.446;13.452;2023-07-20T08:42:33;0.50;;;0.50;;
19645;SDS011;9971;52.446;13.452;2023-07-20T08:47:35;0.37;;;0.37;;
19645;SDS011;9971;52.446;13.452;2023-07-20T08:52:37;0.40;;;0.40;;
19645;SDS011;9971;52.446;13.452;2023-07-20T08:57:40;0.30;;;0.30;;
19645;SDS011;9971;52.446;13.452;2023-07-20T09:02:42;0.40;;;0.40;;
19645;SDS011;9971;52.446;13.452;2023-07-20T09:07:45;1.05;;;0.60;;
19645;SDS011;9971;52.446;13.452;2023-07-20T09:12:47;0.30;;;0.27;;
19645;SDS011;9971;52.446;13.452;2023-07-20T09:17:50;0.23;;;0.23;;
19645;SDS011;9971;52.446;13.452;2023-07-20T09:22:52;0.40;;;0.40;;
19645;SDS011;9971;52.446;13.452;2023-07-20T09:27:54;0.95;;;0.40;;
19645;SDS011;9971;52.446;13.452;2023-07-20T09:32:57;0.50;;;0.50;;
19645;SDS011;9971;52.446;13.452;2023-07-20T09:38:00;0.30;;;0.27;;
19645;SDS011;9971;52.446;13.452;2023-07-20T09:43:03;1.32;;;0.60;;
19645;SDS011;9971;52.446;13.452;2023-07-20T09:48:07;0.40;;;0.40;;
19645;SDS011;9971;52.446;13.452;2023-07-20T10:09:22;0.30;;;0.30;;
19645;SDS011;9971;52.446;13.452;2023-07-20T10:51:57;1.43;;;0.97;;
19645;SDS011;9971;52.446;13.452;2023-07-20T11:13:17;1.33;;;0.60;;
19645;SDS011;9971;52.446;13.452;2023-07-20T11:18:25;0.95;;;0.85;;
19645;SDS011;9971;52.446;13.452;2023-07-20T11:23:32;0.80;;;0.80;;
19645;SDS011;9971;52.446;13.452;2023-07-20T11:50:12;1.03;;;0.87;;
19645;SDS011;9971;52.446;13.452;2023-07-20T11:55:36;0.60;;;0.60;;
19645;SDS011;9971;52.446;13.452;2023-07-20T12:06:08;1.03;;;0.80;;
19645;SDS011;9971;52.446;13.452;2023-07-20T12:11:12;0.50;;;0.50;;
19645;SDS011;9971;52.446;13.452;2023-07-20T12:16:15;0.82;;;0.40;;
19645;SDS011;9971;52.446;13.452;2023-07-20T12:21:16;1.43;;;0.33;;
19645;SDS011;9971;52.446;13.452;2023-07-20T12:26:19;1.03;;;0.50;;
19645;SDS011;9971;52.446;13.452;2023-07-20T12:31:21;0.60;;;0.50;;
19645;SDS011;9971;52.446;13.452;2023-07-20T12:36:23;1.50;;;0.40;;
19645;SDS011;9971;52.446;13.452;2023-07-20T12:41:26;0.80;;;0.60;;
19645;SDS011;9971;52.446;13.452;2023-07-20T12:46:29;0.87;;;0.50;;
19645;SDS011;9971;52.446;13.452;2023-07-20T12:51:31;0.80;;;0.75;;
19645;SDS011;9971;52.446;13.452;2023-07-20T12:56:33;0.83;;;0.40;;
19645;SDS011;9971;52.446;13.452;2023-07-20T13:01:35;0.93;;;0.55;;
19645;SDS011;9971;52.446;13.452;2023-07-20T13:06:39;0.90;;;0.70;;
19645;SDS011;9971;52.446;13.452;2023-07-20T13:11:50;1.97;;;0.50;;
19645;SDS011;9971;52.446;13.452;2023-07-20T13:16:52;0.80;;;0.70;;
19645;SDS011;9971;52.446;13.452;2023-07-20T13:21:55;0.45;;;0.40;;
19645;SDS011;9971;52.446;13.452;2023-07-20T13:26:57;0.30;;;0.30;;
19645;SDS011;9971;52.446;13.452;2023-07-20T13:31:59;0.47;;;0.30;;
19645;SDS011;9971;52.446;13.452;2023-07-20T13:37:02;0.57;;;0.40;;
19645;SDS011;9971;52.446;13.452;2023-07-20T13:42:04;0.47;;;0.47;;
19645;SDS011;9971;52.446;13.452;2023-07-20T13:47:07;1.98;;;0.50;;
19645;SDS011;9971;52.446;13.452;2023-07-20T13:52:09;0.50;;;0.35;;
19645;SDS011;9971;52.446;13.452;2023-07-20T13:57:12;0.82;;;0.57;;
19645;SDS011;9971;52.446;13.452;2023-07-20T14:02:14;0.65;;;0.25;;
19645;SDS011;9971;52.446;13.452;2023-07-20T14:13:01;0.40;;;0.40;;
19645;SDS011;9971;52.446;13.452;2023-07-20T14:18:04;0.70;;;0.40;;
19645;SDS011;9971;52.446;13.452;2023-07-20T14:23:06;0.63;;;0.60;;
19645;SDS011;9971;52.446;13.452;2023-07-20T14:28:09;1.35;;;0.40;;
19645;SDS011;9971;52.446;13.452;2023-07-20T14:33:15;0.60;;;0.47;;
19645;SDS011;9971;52.446;13.452;2023-07-20T14:38:20;0.63;;;0.63;;
19645;SDS011;9971;52.446;13.452;2023-07-20T14:43:24;1.60;;;0.40;;
19645;SDS011;9971;52.446;13.452;2023-07-20T14:48:30;0.93;;;0.43;;
19645;SDS011;9971;52.446;13.452;2023-07-20T14:53:32;0.40;;;0.30;;
19645;SDS011;9971;52.446;13.452;2023-07-20T14:58:39;1.37;;;0.55;;
19645;SDS011;9971;52.446;13.452;2023-07-20T15:03:42;0.50;;;0.50;;
19645;SDS011;9971;52.446;13.452;2023-07-20T15:08:45;0.98;;;0.50;;
19645;SDS011;9971;52.446;13.452;2023-07-20T15:13:47;0.95;;;0.68;;
19645;SDS011;9971;52.446;13.452;2023-07-20T15:18:50;0.37;;;0.30;;
19645;SDS011;9971;52.446;13.452;2023-07-20T15:23:52;0.70;;;0.30;;
19645;SDS011;9971;52.446;13.452;2023-07-20T15:28:55;0.72;;;0.70;;
19645;SDS011;9971;52.446;13.452;2023-07-20T15:33:58;2.30;;;0.60;;
19645;SDS011;9971;52.446;13.452;2023-07-20T15:39:02;0.40;;;0.40;;
19645;SDS011;9971;52.446;13.452;2023-07-20T15:44:04;1.00;;;0.47;;
19645;SDS011;9971;52.446;13.452;2023-07-20T15:49:10;0.40;;;0.40;;
19645;SDS011;9971;52.446;13.452;2023-07-20T15:54:13;0.42;;;0.42;;
19645;SDS011;9971;52.446;13.452;2023-07-20T15:59:16;1.83;;;0.70;;
19645;SDS011;9971;52.446;13.452;2023-07-20T16:04:20;0.65;;;0.40;;
19645;SDS011;9971;52.446;13.452;2023-07-20T16:09:22;1.42;;;0.78;;
19645;SDS011;9971;52.446;13.452;2023-07-20T16:14:25;0.60;;;0.60;;
19645;SDS011;9971;52.446;13.452;2023-07-20T16:19:29;0.65;;;0.65;;
19645;SDS011;9971;52.446;13.452;2023-07-20T16:24:31;1.90;;;0.80;;
19645;SDS011;9971;52.446;13.452;2023-07-20T16:29:33;0.65;;;0.60;;
19645;SDS011;9971;52.446;13.452;2023-07-20T16:34:36;0.60;;;0.60;;
19645;SDS011;9971;52.446;13.452;2023-07-20T16:39:38;1.30;;;0.90;;
19645;SDS011;9971;52.446;13.452;2023-07-20T16:44:41;0.70;;;0.70;;
19645;SDS011;9971;52.446;13.452;2023-07-20T16:49:43;1.07;;;0.80;;
19645;SDS011;9971;52.446;13.452;2023-07-20T16:54:47;0.90;;;0.90;;
19645;SDS011;9971;52.446;13.452;2023-07-20T16:59:50;0.80;;;0.77;;
19645;SDS011;9971;52.446;13.452;2023-07-20T17:04:55;1.32;;;0.80;;
19645;SDS011;9971;52.446;13.452;2023-07-20T17:10:01;0.80;;;0.80;;
19645;SDS011;9971;52.446;13.452;2023-07-20T17:15:05;3.02;;;1.20;;
19645;SDS011;9971;52.446;13.452;2023-07-20T17:20:11;2.17;;;0.83;;
19645;SDS011;9971;52.446;13.452;2023-07-20T17:25:15;0.70;;;0.70;;
19645;SDS011;9971;52.446;13.452;2023-07-20T17:30:18;0.62;;;0.50;;
19645;SDS011;9971;52.446;13.452;2023-07-20T17:35:21;0.73;;;0.73;;
19645;SDS011;9971;52.446;13.452;2023-07-20T17:40:25;2.80;;;0.95;;
19645;SDS011;9971;52.446;13.452;2023-07-20T17:45:33;0.90;;;0.90;;
19645;SDS011;9971;52.446;13.452;2023-07-20T17:50:35;2.80;;;0.90;;
19645;SDS011;9971;52.446;13.452;2023-07-20T17:55:46;1.67;;;0.87;;
19645;SDS011;9971;52.446;13.452;2023-07-20T18:00:51;0.90;;;0.90;;
19645;SDS011;9971;52.446;13.452;2023-07-20T18:06:02;1.97;;;0.87;;
19645;SDS011;9971;52.446;13.452;2023-07-20T18:11:07;0.80;;;0.80;;
19645;SDS011;9971;52.446;13.452;2023-07-20T18:16:13;1.07;;;0.90;;
19645;SDS011;9971;52.446;13.452;2023-07-20T18:21:16;0.83;;;0.67;;
19645;SDS011;9971;52.446;13.452;2023-07-20T18:47:46;1.07;;;0.80;;
19645;SDS011;9971;52.446;13.452;2023-07-20T18:52:49;1.87;;;0.78;;
19645;SDS011;9971;52.446;13.452;2023-07-20T18:57:52;1.12;;;0.57;;
19645;SDS011;9971;52.446;13.452;2023-07-20T19:02:59;1.37;;;1.00;;
19645;SDS011;9971;52.446;13.452;2023-07-20T19:08:01;2.95;;;0.80;;
19645;SDS011;9971;52.446;13.452;2023-07-20T19:13:07;1.05;;;0.82;;
19645;SDS011;9971;52.446;13.452;2023-07-20T19:18:11;1.20;;;0.90;;
19645;SDS011;9971;52.446;13.452;2023-07-20T19:23:14;0.70;;;0.70;;
19645;SDS011;9971;52.446;13.452;2023-07-20T19:28:20;1.07;;;0.97;;
19645;SDS011;9971;52.446;13.452;2023-07-20T19:33:22;0.93;;;0.77;;
19645;SDS011;9971;52.446;13.452;2023-07-20T19:38:26;1.32;;;0.90;;
19645;SDS011;9971;52.446;13.452;2023-07-20T19:43:33;0.97;;;0.90;;
19645;SDS011;9971;52.446;13.452;2023-07-20T19:48:37;0.90;;;0.77;;
19645;SDS011;9971;52.446;13.452;2023-07-20T19:53:41;1.60;;;1.10;;
19645;SDS011;9971;52.446;13.452;2023-07-20T19:58:46;0.97;;;0.93;;
19645;SDS011;9971;52.446;13.452;2023-07-20T20:03:52;1.87;;;1.07;;
19645;SDS011;9971;52.446;13.452;2023-07-20T20:08:54;0.97;;;0.70;;
19645;SDS011;9971;52.446;13.452;2023-07-20T20:13:56;1.33;;;0.90;;
19645;SDS011;9971;52.446;13.452;2023-07-20T20:19:00;1.23;;;0.80;;
19645;SDS011;9971;52.446;13.452;2023-07-20T20:24:04;1.27;;;0.97;;
19645;SDS011;9971;52.446;13.452;2023-07-20T20:29:10;0.93;;;0.73;;
19645;SDS011;9971;52.446;13.452;2023-07-20T20:34:14;1.35;;;1.07;;
19645;SDS011;9971;52.446;13.452;2023-07-20T20:39:18;2.10;;;1.00;;
19645;SDS011;9971;52.446;13.452;2023-07-20T20:44:20;0.88;;;0.88;;
19645;SDS011;9971;52.446;13.452;2023-07-20T20:49:22;1.47;;;0.80;;
19645;SDS011;9971;52.446;13.452;2023-07-20T20:54:26;0.80;;;0.80;;
19645;SDS011;9971;52.446;13.452;2023-07-20T20:59:28;0.88;;;0.72;;
19645;SDS011;9971;52.446;13.452;2023-07-20T21:04:31;1.60;;;0.73;;
19645;SDS011;9971;52.446;13.452;2023-07-20T21:09:34;2.57;;;0.70;;
19645;SDS011;9971;52.446;13.452;2023-07-20T21:14:36;1.25;;;1.10;;
19645;SDS011;9971;52.446;13.452;2023-07-20T21:19:39;1.60;;;1.07;;
19645;SDS011;9971;52.446;13.452;2023-07-20T21:24:42;3.22;;;0.98;;
19645;SDS011;9971;52.446;13.452;2023-07-20T21:29:45;0.63;;;0.63;;
19645;SDS011;9971;52.446;13.452;2023-07-20T21:34:48;1.32;;;1.00;;
19645;SDS011;9971;52.446;13.452;2023-07-20T21:39:55;1.50;;;1.13;;
19645;SDS011;9971;52.446;13.452;2023-07-20T21:45:00;3.17;;;1.70;;
19645;SDS011;9971;52.446;13.452;2023-07-20T21:50:03;1.20;;;1.10;;
19645;SDS011;9971;52.446;13.452;2023-07-20T21:55:06;2.37;;;1.37;;
19645;SDS011;9971;52.446;13.452;2023-07-20T22:00:10;1.77;;;1.63;;
19645;SDS011;9971;52.446;13.452;2023-07-20T22:05:13;1.57;;;1.37;;
19645;SDS011;9971;52.446;13.452;2023-07-20T22:10:16;1.40;;;1.30;;
19645;SDS011;9971;52.446;13.452;2023-07-20T22:15:17;2.22;;;1.52;;
19645;SDS011;9971;52.446;13.452;2023-07-20T22:20:25;1.85;;;1.67;;
19645;SDS011;9971;52.446;13.452;2023-07-20T22:25:28;1.77;;;1.60;;
19645;SDS011;9971;52.446;13.452;2023-07-20T22:30:30;3.80;;;1.92;;
19645;SDS011;9971;52.446;13.452;2023-07-20T22:35:33;1.80;;;1.70;;
19645;SDS011;9971;52.446;13.452;2023-07-20T22:40:36;2.22;;;1.70;;
19645;SDS011;9971;52.446;13.452;2023-07-20T22:45:40;2.47;;;1.60;;
19645;SDS011;9971;52.446;13.452;2023-07-20T22:50:43;2.00;;;1.77;;
19645;SDS011;9971;52.446;13.452;2023-07-20T22:55:46;1.90;;;1.65;;
19645;SDS011;9971;52.446;13.452;2023-07-20T23:00:52;1.85;;;1.65;;
19645;SDS011;9971;52.446;13.452;2023-07-20T23:05:54;1.62;;;1.52;;
19645;SDS011;9971;52.446;13.452;2023-07-20T23:10:57;2.27;;;1.47;;
19645;SDS011;9971;52.446;13.452;2023-07-20T23:15:59;1.98;;;1.57;;
19645;SDS011;9971;52.446;13.452;2023-07-20T23:21:03;2.63;;;1.70;;
19645;SDS011;9971;52.446;13.452;2023-07-20T23:26:06;2.50;;;2.10;;
19645;SDS011;9971;52.446;13.452;2023-07-20T23:31:10;2.30;;;1.77;;
19645;SDS011;9971;52.446;13.452;2023-07-20T23:36:12;1.92;;;1.70;;
19645;SDS011;9971;52.446;13.452;2023-07-20T23:41:20;1.40;;;1.30;;
19645;SDS011;9971;52.446;13.452;2023-07-20T23:46:23;1.83;;;1.67;;
19645;SDS011;9971;52.446;13.452;2023-07-20T23:51:26;2.47;;;1.60;;
19645;SDS011;9971;52.446;13.452;2023-07-20T23:56:28;2.30;;;1.60;;
